Time;durP1;ratioP1;P1;durP2;ratioP2;P2;SDS_P1;SDS_P2;PMS_P1;PMS_P2;Temp;Humidity;BMP_temperature;BMP_pressure;BME280_temperature;BME280_humidity;BME280_pressure;Samples;Min_cycle;Max_cycle;Signal;HPM_P1;HPM_P2
2022/06/29 00:01:24;;;;;;;7.47;2.35;;;22.90;96.30;;;23.00;100.00;100300.72;4989622;28;20046;-78
2022/06/29 00:03:54;;;;;;;2.92;1.55;;;22.80;96.40;;;22.95;100.00;100305.59;4989781;28;20038;-78
2022/06/29 00:06:21;;;;;;;3.15;1.55;;;22.70;96.50;;;22.83;100.00;100304.69;4969284;28;20066;-78
2022/06/29 00:08:48;;;;;;;3.40;1.33;;;22.60;96.60;;;22.76;100.00;100301.63;4985578;28;20042;-77
2022/06/29 00:11:15;;;;;;;2.55;1.40;;;22.60;96.80;;;22.76;100.00;100298.13;4985996;28;20408;-78
2022/06/29 00:13:42;;;;;;;4.03;1.73;;;22.50;96.80;;;22.77;100.00;100294.47;4986363;28;20412;-78
2022/06/29 00:16:09;;;;;;;2.17;1.70;;;22.50;96.90;;;22.84;100.00;100297.53;4986274;28;20385;-78
2022/06/29 00:18:37;;;;;;;2.80;1.77;;;22.50;96.90;;;22.79;100.00;100297.88;4971982;28;20107;-78
2022/06/29 00:21:04;;;;;;;3.10;1.83;;;22.50;96.90;;;22.74;100.00;100290.16;4952536;28;20051;-78
2022/06/29 00:23:31;;;;;;;3.15;1.60;;;22.50;96.80;;;22.82;100.00;100294.94;4969991;28;20058;-78
2022/06/29 00:25:58;;;;;;;3.78;1.75;;;22.50;96.90;;;22.81;100.00;100287.88;4970134;28;20051;-78
2022/06/29 00:28:25;;;;;;;3.28;1.73;;;22.40;97.00;;;22.85;100.00;100292.03;4986276;28;20054;-78
2022/06/29 00:30:53;;;;;;;4.40;1.65;;;22.40;96.80;;;22.83;100.00;100291.28;4969271;28;20051;-79
2022/06/29 00:33:20;;;;;;;3.30;1.50;;;22.40;97.00;;;22.75;100.00;100291.88;4985791;28;20074;-79
2022/06/29 00:35:47;;;;;;;4.40;1.73;;;22.40;97.00;;;22.62;100.00;100285.75;4969879;28;20054;-78
2022/06/29 00:38:17;;;;;;;2.60;1.50;;;22.40;96.90;;;22.62;100.00;100288.44;4985771;28;20051;-78
2022/06/29 00:40:44;;;;;;;3.13;1.80;;;22.30;96.80;;;22.58;100.00;100287.81;4984718;28;20125;-78
2022/06/29 00:43:11;;;;;;;4.47;1.80;;;22.30;97.10;;;22.68;100.00;100287.97;4953617;28;20463;-78
2022/06/29 00:45:41;;;;;;;2.38;1.80;;;22.30;97.00;;;22.73;100.00;100288.47;4969594;28;20050;-77
2022/06/29 00:48:09;;;;;;;2.20;1.80;;;22.30;97.00;;;22.72;100.00;100297.47;4985759;28;20564;-78
2022/06/29 00:50:41;;;;;;;2.63;1.50;;;22.30;97.10;;;22.85;100.00;100289.34;4972635;28;20057;-78
2022/06/29 00:53:12;;;;;;;2.10;1.55;;;22.30;97.20;;;22.80;100.00;100289.72;4962885;28;20050;-78
2022/06/29 00:55:44;;;;;;;2.45;1.60;;;22.40;97.20;;;22.77;100.00;100289.09;4954367;28;20051;-78
2022/06/29 00:58:11;;;;;;;3.17;1.58;;;22.30;97.30;;;22.79;100.00;100281.78;4969557;28;20057;-78
2022/06/29 01:00:38;;;;;;;5.80;1.70;;;22.00;97.30;;;22.77;100.00;100273.84;4969209;28;20171;-77
2022/06/29 01:03:07;;;;;;;2.63;1.60;;;22.40;97.50;;;22.76;100.00;100273.97;4984397;28;20053;-77
2022/06/29 01:05:34;;;;;;;4.38;1.52;;;22.40;97.40;;;22.72;100.00;100268.00;4980969;28;20044;-79
2022/06/29 01:08:01;;;;;;;2.97;2.13;;;22.30;97.50;;;22.71;100.00;100266.28;4969223;28;20057;-78
2022/06/29 01:10:31;;;;;;;4.82;1.80;;;22.30;97.40;;;22.54;100.00;100267.56;4971996;28;20105;-78
2022/06/29 01:12:58;;;;;;;3.78;1.52;;;22.30;97.80;;;22.55;100.00;100273.78;4988884;28;20046;-77
2022/06/29 01:15:25;;;;;;;3.53;1.75;;;22.20;97.80;;;22.51;100.00;100278.53;4972273;28;20411;-77
2022/06/29 01:17:52;;;;;;;3.35;1.98;;;22.20;97.70;;;22.53;100.00;100271.22;4987894;28;20537;-78
2022/06/29 01:20:19;;;;;;;1.73;1.35;;;22.20;97.60;;;22.48;100.00;100262.69;4985782;28;20083;-78
2022/06/29 01:22:46;;;;;;;2.92;1.70;;;22.20;97.70;;;22.55;100.00;100263.91;4988141;28;20488;-78
2022/06/29 01:25:13;;;;;;;2.92;1.90;;;22.00;97.50;;;22.58;100.00;100268.19;4988093;28;20506;-78
2022/06/29 01:27:41;;;;;;;5.47;1.80;;;22.10;97.70;;;22.54;100.00;100272.09;4972586;28;20463;-78
2022/06/29 01:30:09;;;;;;;2.78;1.88;;;22.10;97.80;;;22.56;100.00;100268.31;4971578;28;20055;-78
2022/06/29 01:32:40;;;;;;;3.58;1.77;;;22.20;97.50;;;22.55;100.00;100271.13;4972173;28;20534;-78
2022/06/29 01:35:13;;;;;;;3.53;1.83;;;22.10;97.60;;;22.41;100.00;100269.47;4972347;28;20058;-78
2022/06/29 01:37:42;;;;;;;2.50;1.40;;;22.10;97.50;;;22.38;100.00;100266.00;4988436;28;20053;-77
2022/06/29 01:40:11;;;;;;;2.63;1.50;;;22.10;97.50;;;22.36;100.00;100264.44;4987514;28;20048;-78
2022/06/29 01:56:11;;;;;;;3.30;1.40;;;22.00;97.00;;;22.33;100.00;100252.13;4988761;28;20053;-78
2022/06/29 01:58:38;;;;;;;4.28;1.85;;;21.90;97.00;;;22.28;100.00;100251.63;4989428;28;20038;-78
2022/06/29 02:01:06;;;;;;;2.38;1.40;;;21.90;97.30;;;22.22;100.00;100247.56;4987117;28;20042;-77
2022/06/29 02:03:33;;;;;;;4.45;1.63;;;21.90;97.50;;;22.15;100.00;100253.50;4971896;28;20057;-78
2022/06/29 02:06:00;;;;;;;3.67;2.03;;;21.90;97.70;;;22.20;100.00;100251.31;4972014;28;20042;-78
2022/06/29 02:08:27;;;;;;;5.20;2.15;;;21.80;97.70;;;22.16;100.00;100247.19;4988197;28;20057;-78
2022/06/29 02:10:54;;;;;;;2.47;1.73;;;21.80;97.90;;;22.06;100.00;100247.84;4971175;28;20046;-77
2022/06/29 02:13:21;;;;;;;2.80;1.88;;;21.80;98.20;;;22.06;100.00;100250.53;4971878;28;20065;-77
2022/06/29 02:15:48;;;;;;;1.92;1.60;;;21.80;98.10;;;22.08;100.00;100248.59;4986025;28;20537;-77
2022/06/29 02:26:53;;;;;;;2.83;1.80;;;21.70;98.30;;;22.01;100.00;100243.81;4967252;28;20519;-77
2022/06/29 02:29:20;;;;;;;4.57;2.00;;;21.70;98.40;;;22.10;100.00;100252.03;4954404;28;20057;-77
2022/06/29 02:34:46;;;;;;;3.67;1.63;;;21.70;98.50;;;22.07;100.00;100246.88;4974569;28;20559;-77
2022/06/29 02:37:16;;;;;;;;;;;21.70;98.60;;;22.19;100.00;100249.63;4975004;28;20444;-77
2022/06/29 02:39:44;;;;;;;5.13;2.80;;;21.70;98.50;;;22.14;100.00;100249.97;4971896;28;19930;-77
2022/06/29 02:42:13;;;;;;;6.25;1.75;;;21.80;98.80;;;22.07;100.00;100246.03;4971931;28;20054;-78
2022/06/29 02:44:41;;;;;;;2.80;1.75;;;21.70;98.90;;;22.18;100.00;100245.22;4971641;28;20512;-77
2022/06/29 02:47:09;;;;;;;2.78;2.00;;;21.70;98.80;;;22.16;100.00;100248.00;4956551;28;20050;-77
2022/06/29 02:49:37;;;;;;;5.13;1.80;;;21.80;99.00;;;22.07;100.00;100259.44;4955380;28;20061;-77
2022/06/29 02:52:04;;;;;;;3.00;1.73;;;21.70;99.30;;;22.05;100.00;100250.66;4971494;28;20133;-77
2022/06/29 02:54:34;;;;;;;3.42;2.03;;;21.70;99.30;;;22.13;100.00;100252.78;4985331;28;20538;-77
2022/06/29 02:57:01;;;;;;;2.83;1.67;;;21.70;99.20;;;22.13;100.00;100247.41;4991158;28;20046;-77
2022/06/29 02:59:28;;;;;;;5.20;1.90;;;21.70;99.20;;;22.11;100.00;100247.50;4989739;28;20035;-77
2022/06/29 03:01:55;;;;;;;2.45;1.60;;;21.70;99.10;;;22.15;100.00;100246.31;4990848;28;20050;-77
2022/06/29 03:04:22;;;;;;;3.72;1.77;;;21.80;99.00;;;22.10;100.00;100241.31;4990663;28;20462;-77
2022/06/29 03:06:49;;;;;;;4.65;1.95;;;21.70;99.00;;;21.96;100.00;100241.50;4974696;28;20034;-77
2022/06/29 03:09:34;;;;;;;4.15;2.00;;;21.60;99.20;;;21.93;100.00;100241.69;4990204;28;20041;-77
2022/06/29 03:12:01;;;;;;;7.22;1.63;;;21.70;99.20;;;21.88;100.00;100242.06;4982844;28;20057;-77
2022/06/29 03:14:28;;;;;;;2.20;1.80;;;21.60;99.30;;;21.84;100.00;100237.88;4971907;28;20034;-77
2022/06/29 03:16:56;;;;;;;4.47;1.67;;;21.60;99.30;;;21.78;100.00;100239.22;4955490;28;20687;-77
2022/06/29 03:19:24;;;;;;;2.53;1.70;;;21.60;99.30;;;21.80;100.00;100236.41;4954411;28;20436;-78
2022/06/29 03:21:51;;;;;;;3.17;1.88;;;21.50;99.10;;;21.82;100.00;100237.13;4972433;28;20043;-77
2022/06/29 03:24:18;;;;;;;2.00;1.58;;;21.50;99.10;;;21.76;100.00;100234.91;4985140;28;20038;-77
2022/06/29 03:26:45;;;;;;;2.83;1.40;;;21.40;99.00;;;21.78;100.00;100249.03;4974319;28;20500;-77
2022/06/29 03:29:12;;;;;;;4.50;2.53;;;21.40;99.10;;;21.83;100.00;100244.19;4989869;28;20050;-78
2022/06/29 03:31:39;;;;;;;2.30;1.83;;;21.40;98.90;;;21.79;100.00;100237.38;4973823;28;20054;-78
2022/06/29 03:34:06;;;;;;;4.78;1.98;;;21.50;98.80;;;21.74;100.00;100247.56;4990390;28;20527;-77
2022/06/29 03:36:33;;;;;;;2.83;1.70;;;21.50;98.70;;;21.78;100.00;100244.56;4974291;28;20043;-77
2022/06/29 03:39:00;;;;;;;3.33;1.67;;;21.40;98.60;;;21.71;100.00;100243.28;4989486;28;20052;-77
2022/06/29 03:41:27;;;;;;;3.10;2.28;;;21.40;98.70;;;21.78;100.00;100241.88;4989065;28;20497;-77
2022/06/29 03:43:57;;;;;;;2.92;2.00;;;21.40;98.60;;;21.84;100.00;100243.22;4990234;28;20729;-77
2022/06/29 03:46:24;;;;;;;3.60;2.00;;;21.40;98.70;;;21.86;100.00;100237.78;4990016;28;20042;-77
2022/06/29 03:48:51;;;;;;;7.88;2.55;;;21.50;98.80;;;21.88;100.00;100238.50;4989950;28;20042;-77
2022/06/29 03:51:18;;;;;;;4.22;1.92;;;21.50;98.70;;;21.85;100.00;100239.59;4989527;28;20423;-76
2022/06/29 03:53:45;;;;;;;3.95;1.90;;;21.50;98.70;;;21.77;100.00;100237.47;4989823;28;20886;-78
2022/06/29 03:56:12;;;;;;;2.28;1.92;;;21.40;98.80;;;21.85;100.00;100236.91;4990065;28;20042;-78
2022/06/29 03:58:40;;;;;;;3.55;1.63;;;21.50;98.60;;;21.79;100.00;100232.00;5006520;28;20086;-77
2022/06/29 04:01:13;;;;;;;2.47;1.65;;;21.50;98.70;;;21.77;100.00;100229.44;4987202;28;20050;-77
2022/06/29 04:03:40;;;;;;;2.78;2.00;;;21.40;98.80;;;21.83;100.00;100229.97;4989582;28;20050;-77
2022/06/29 04:06:08;;;;;;;2.53;1.63;;;21.40;98.90;;;21.74;100.00;100232.34;4990242;28;20049;-77
2022/06/29 04:08:36;;;;;;;5.38;2.65;;;21.40;99.10;;;21.72;100.00;100228.09;4973620;28;20056;-78
2022/06/29 04:13:55;;;;;;;2.65;1.88;;;21.40;99.40;;;21.72;100.00;100234.28;4988839;28;20073;-78
2022/06/29 04:16:22;;;;;;;4.30;2.10;;;21.30;99.20;;;21.77;100.00;100226.75;4974114;28;20551;-78
2022/06/29 04:18:49;;;;;;;2.42;1.92;;;21.40;99.30;;;21.76;100.00;100214.34;4976796;28;20047;-80
2022/06/29 04:21:16;;;;;;;2.60;1.98;;;21.40;99.10;;;21.85;100.00;100217.31;4992600;28;20046;-77
2022/06/29 04:23:43;;;;;;;5.00;1.95;;;21.40;99.00;;;21.80;100.00;100215.84;4981387;28;20515;-79
2022/06/29 04:26:10;;;;;;;2.80;1.92;;;21.50;99.10;;;21.78;100.00;100225.81;4972193;28;20054;-77
2022/06/29 04:28:37;;;;;;;2.45;2.00;;;21.40;99.20;;;21.74;100.00;100221.63;4971418;28;20142;-78
2022/06/29 04:31:04;;;;;;;2.47;1.77;;;21.50;99.40;;;21.88;100.00;100214.41;4970978;28;20662;-79
2022/06/29 04:33:32;;;;;;;3.00;2.15;;;21.50;99.00;;;21.75;100.00;100218.00;4956305;28;20054;-78
2022/06/29 04:35:59;;;;;;;4.50;2.08;;;21.40;99.10;;;21.78;100.00;100224.94;4955831;28;20065;-77
2022/06/29 04:38:26;;;;;;;4.28;2.22;;;21.50;99.20;;;21.83;100.00;100221.94;4970736;28;20042;-77
2022/06/29 04:40:53;;;;;;;4.53;2.45;;;21.40;99.10;;;21.89;100.00;100216.13;4954992;28;20070;-79
2022/06/29 04:43:20;;;;;;;7.63;2.35;;;21.50;98.90;;;21.81;100.00;100220.22;4955144;28;20038;-79
2022/06/29 04:48:33;;;;;;;4.63;2.25;;;21.50;98.80;;;21.87;100.00;100232.31;4978838;28;20073;-77
2022/06/29 04:51:00;;;;;;;2.30;1.90;;;21.50;98.60;;;21.89;100.00;100224.16;5007000;28;20522;-76
2022/06/29 04:53:27;;;;;;;3.03;1.77;;;21.50;98.10;;;21.95;100.00;100224.56;4977636;28;20058;-77
2022/06/29 04:55:54;;;;;;;2.85;1.60;;;21.50;97.70;;;22.03;100.00;100231.19;4979670;28;20065;-78
2022/06/29 04:58:21;;;;;;;2.28;1.70;;;21.60;97.60;;;22.08;100.00;100237.88;4973234;28;20081;-77
2022/06/29 05:00:48;;;;;;;2.15;1.85;;;21.60;97.40;;;21.99;100.00;100230.53;4972900;28;20493;-77
2022/06/29 05:03:15;;;;;;;2.78;1.98;;;21.60;97.40;;;22.02;100.00;100230.31;4987186;28;20054;-79
2022/06/29 05:05:42;;;;;;;3.67;1.98;;;21.60;97.10;;;22.10;100.00;100233.28;4968719;28;20051;-78
2022/06/29 05:08:09;;;;;;;2.97;1.63;;;21.70;96.70;;;22.15;100.00;100234.75;4969215;28;20051;-78
2022/06/29 05:10:37;;;;;;;3.72;2.22;;;21.70;96.40;;;22.16;100.00;100233.78;4969324;28;20468;-78
2022/06/29 05:13:04;;;;;;;4.22;2.03;;;21.90;96.30;;;22.14;100.00;100228.53;4972581;28;20122;-78
2022/06/29 05:15:31;;;;;;;4.97;2.20;;;21.70;95.80;;;22.14;100.00;100231.19;4973606;28;20065;-77
2022/06/29 05:17:58;;;;;;;4.03;1.90;;;21.70;95.90;;;22.15;100.00;100232.06;4957065;28;20062;-77
2022/06/29 05:20:25;;;;;;;2.97;1.60;;;21.80;95.70;;;22.18;100.00;100229.16;4972182;28;20046;-77
2022/06/29 05:22:52;;;;;;;2.92;1.75;;;21.80;95.40;;;22.10;100.00;100235.09;4975321;28;20397;-77
2022/06/29 05:25:20;;;;;;;3.47;2.38;;;21.70;95.40;;;22.09;100.00;100236.06;4957835;28;20399;-77
2022/06/29 05:27:47;;;;;;;3.55;1.92;;;21.80;95.60;;;22.20;100.00;100232.56;4972984;28;20057;-77
2022/06/29 05:30:15;;;;;;;3.28;1.90;;;21.80;95.40;;;22.18;100.00;100237.19;4972649;28;20129;-77
2022/06/29 05:32:43;;;;;;;4.18;1.80;;;21.80;95.20;;;22.18;100.00;100234.50;4959330;28;20051;-77
2022/06/29 05:35:10;;;;;;;8.65;2.10;;;21.80;95.80;;;22.15;100.00;100230.22;4975943;28;20054;-77
2022/06/29 05:37:41;;;;;;;2.72;1.80;;;21.80;96.10;;;22.13;100.00;100236.69;4959442;28;20419;-77
2022/06/29 05:40:09;;;;;;;2.92;2.00;;;21.80;96.70;;;22.12;100.00;100227.78;4973677;28;20053;-77
2022/06/29 05:42:36;;;;;;;4.25;1.75;;;21.80;96.40;;;22.08;100.00;100231.69;4972636;28;20121;-77
2022/06/29 05:45:04;;;;;;;3.35;1.80;;;21.80;95.80;;;22.08;100.00;100229.00;4972727;28;20047;-77
2022/06/29 05:47:31;;;;;;;5.15;1.70;;;21.80;96.10;;;22.09;100.00;100234.25;4956059;28;20113;-77
2022/06/29 05:50:00;;;;;;;3.33;2.03;;;21.80;96.50;;;22.15;100.00;100229.41;4955758;28;20605;-77
2022/06/29 05:52:27;;;;;;;3.28;1.83;;;21.80;96.70;;;22.16;100.00;100236.47;4971455;28;20154;-77
2022/06/29 05:54:54;;;;;;;3.50;1.83;;;21.80;97.10;;;22.08;100.00;100229.84;4971342;28;20057;-77
2022/06/29 05:57:27;;;;;;;2.30;1.83;;;21.80;96.80;;;22.19;100.00;100231.72;4977392;28;20061;-78
2022/06/29 05:59:54;;;;;;;4.68;2.08;;;21.80;96.70;;;22.14;100.00;100233.88;4982517;28;20050;-77
2022/06/29 06:02:21;;;;;;;3.65;1.88;;;21.80;97.00;;;22.16;100.00;100234.63;4967147;28;20106;-78
2022/06/29 06:04:48;;;;;;;4.57;2.10;;;22.10;96.80;;;22.15;100.00;100232.91;4981821;28;20058;-77
2022/06/29 06:07:15;;;;;;;3.40;1.92;;;21.80;96.80;;;22.18;100.00;100229.16;4966103;28;20053;-77
2022/06/29 06:09:42;;;;;;;3.10;2.28;;;21.80;96.80;;;22.18;100.00;100230.03;4987444;28;20073;-77
2022/06/29 06:12:09;;;;;;;3.50;2.05;;;21.80;97.00;;;22.19;100.00;100230.88;5000774;28;20050;-77
2022/06/29 06:14:36;;;;;;;3.22;2.20;;;21.80;97.10;;;22.22;100.00;100241.34;5001139;28;20082;-78
2022/06/29 06:17:03;;;;;;;6.45;2.08;;;21.80;96.70;;;22.30;100.00;100240.78;5001379;28;20085;-77
2022/06/29 06:19:31;;;;;;;5.53;2.50;;;21.90;96.50;;;22.30;100.00;100238.09;5001113;28;20069;-77
2022/06/29 06:21:58;;;;;;;2.22;1.95;;;21.90;96.10;;;22.36;100.00;100249.19;5001641;28;20038;-77
2022/06/29 06:24:25;;;;;;;5.80;2.40;;;21.90;96.10;;;22.47;100.00;100250.22;5000162;28;20525;-78
2022/06/29 06:26:52;;;;;;;3.40;1.95;;;21.90;96.00;;;22.47;100.00;100245.72;4997785;28;20130;-78
2022/06/29 06:29:19;;;;;;;2.15;1.80;;;22.00;95.60;;;22.45;100.00;100241.44;4979860;28;20076;-77
2022/06/29 06:31:46;;;;;;;3.28;2.30;;;22.00;95.10;;;22.53;100.00;100247.09;5002526;28;20152;-78
2022/06/29 06:34:14;;;;;;;3.45;2.00;;;22.10;95.40;;;22.69;100.00;100240.53;4987254;28;20054;-78
2022/06/29 06:36:44;;;;;;;4.25;2.25;;;22.10;95.30;;;22.61;100.00;100244.69;5002910;28;20114;-77
2022/06/29 06:39:11;;;;;;;3.65;2.30;;;22.20;95.10;;;22.75;100.00;100246.28;5001899;28;20057;-77
2022/06/29 06:41:38;;;;;;;2.97;2.15;;;22.20;95.00;;;22.95;100.00;100241.22;5002572;28;20042;-78
2022/06/29 06:44:05;;;;;;;2.85;2.08;;;22.30;95.00;;;22.95;100.00;100241.22;4985593;28;20073;-77
2022/06/29 06:46:34;;;;;;;3.33;2.40;;;22.40;95.10;;;22.98;100.00;100238.28;5002080;28;20042;-78
2022/06/29 06:49:01;;;;;;;4.82;2.50;;;22.40;94.70;;;23.02;100.00;100244.25;5002918;28;20057;-77
2022/06/29 06:51:28;;;;;;;3.45;2.30;;;22.50;94.50;;;23.06;100.00;100237.69;4983795;28;20043;-77
2022/06/29 06:53:55;;;;;;;4.00;2.40;;;22.60;94.60;;;23.08;100.00;100238.41;4994549;28;20058;-77
2022/06/29 06:56:22;;;;;;;3.20;2.20;;;22.60;94.50;;;23.25;100.00;100244.28;4996713;28;20038;-77
2022/06/29 06:58:49;;;;;;;4.40;2.55;;;22.70;94.90;;;23.39;100.00;100243.19;4992933;28;20759;-78
2022/06/29 07:01:21;;;;;;;5.53;2.70;;;22.80;94.80;;;23.53;100.00;100245.63;4980569;28;20050;-78
2022/06/29 07:03:49;;;;;;;4.38;2.80;;;22.90;94.60;;;23.48;100.00;100250.50;4983017;28;20403;-78
2022/06/29 07:06:16;;;;;;;4.47;2.60;;;23.00;94.20;;;23.71;100.00;100245.97;4972634;28;20053;-77
2022/06/29 07:08:45;;;;;;;2.70;2.50;;;23.10;94.50;;;23.86;100.00;100238.47;4991398;28;20050;-77
2022/06/29 07:11:13;;;;;;;3.33;2.70;;;23.20;94.30;;;24.02;100.00;100242.56;4966866;28;20142;-78
2022/06/29 07:13:41;;;;;;;4.38;2.70;;;23.30;94.50;;;24.12;100.00;100237.31;4983752;28;20057;-76
2022/06/29 07:16:08;;;;;;;2.90;2.55;;;23.50;94.30;;;24.19;100.00;100235.81;4984516;28;20050;-78
2022/06/29 07:18:36;;;;;;;4.15;2.53;;;23.60;94.10;;;24.23;100.00;100228.38;4987239;28;20081;-77
2022/06/29 07:21:03;;;;;;;3.03;2.72;;;23.70;93.80;;;24.22;97.78;100232.88;5001493;28;20050;-77
2022/06/29 07:23:30;;;;;;;2.80;2.60;;;23.80;93.30;;;24.16;98.76;100236.94;5003341;28;20114;-77
2022/06/29 07:25:58;;;;;;;3.70;2.90;;;23.80;93.20;;;24.43;100.00;100248.16;4982244;28;20046;-78
2022/06/29 07:28:25;;;;;;;5.20;2.70;;;23.80;93.70;;;24.51;99.86;100237.63;5003916;28;20035;-78
2022/06/29 07:30:52;;;;;;;3.30;2.85;;;23.90;93.50;;;24.59;100.00;100235.16;5002002;28;20042;-77
2022/06/29 07:33:19;;;;;;;5.53;3.10;;;24.00;93.60;;;24.67;100.00;100242.56;4993407;28;20042;-77
2022/06/29 07:35:46;;;;;;;2.70;2.45;;;24.10;93.80;;;24.50;97.28;100239.44;4992675;28;20081;-76
2022/06/29 07:38:13;;;;;;;3.90;2.28;;;24.10;93.00;;;24.57;98.85;100234.41;4994565;28;20052;-76
2022/06/29 07:40:40;;;;;;;4.10;2.75;;;24.20;93.10;;;24.63;99.67;100233.88;5018425;28;20057;-77
2022/06/29 07:43:07;;;;;;;3.75;2.55;;;24.20;93.20;;;24.71;98.34;100235.06;4991592;28;20046;-76
2022/06/29 07:45:34;;;;;;;3.97;2.58;;;24.20;93.10;;;24.57;99.02;100229.03;4983177;28;20042;-77
2022/06/29 07:48:02;;;;;;;4.97;2.50;;;24.30;93.00;;;24.66;100.00;100231.91;5006578;28;20510;-76
2022/06/29 07:50:29;;;;;;;3.13;2.63;;;24.20;93.20;;;24.60;100.00;100234.16;4990628;28;20038;-76
2022/06/29 07:52:56;;;;;;;4.05;3.05;;;24.30;93.10;;;24.74;100.00;100227.59;4974271;28;20081;-77
2022/06/29 07:55:24;;;;;;;3.60;2.80;;;24.30;93.40;;;24.69;100.00;100232.50;4986587;28;20106;-76
2022/06/29 07:57:52;;;;;;;5.20;2.88;;;24.30;93.10;;;24.87;100.00;100232.78;4979249;28;20042;-76
2022/06/29 08:00:21;;;;;;;4.53;2.28;;;24.40;93.30;;;24.99;100.00;100238.06;4981259;28;20121;-77
2022/06/29 08:02:49;;;;;;;4.05;2.55;;;24.80;93.60;;;25.16;100.00;100232.06;4984372;28;20400;-76
2022/06/29 08:05:16;;;;;;;4.68;3.10;;;24.50;93.40;;;25.29;100.00;100234.53;4997050;28;20050;-76
2022/06/29 08:07:43;;;;;;;3.15;2.40;;;24.60;93.70;;;25.30;100.00;100233.56;4964070;28;20291;-76
2022/06/29 08:10:10;;;;;;;3.53;3.10;;;24.80;93.40;;;25.37;100.00;100239.25;4985697;28;20630;-75
2022/06/29 08:12:37;;;;;;;5.43;3.58;;;24.80;93.30;;;25.28;97.95;100242.75;4989027;28;20184;-75
2022/06/29 08:15:05;;;;;;;4.28;2.88;;;24.90;93.00;;;25.47;99.99;100233.88;4988726;28;20119;-76
2022/06/29 08:17:32;;;;;;;3.58;2.80;;;24.90;93.30;;;25.58;97.53;100235.63;4993091;28;20101;-76
2022/06/29 08:20:03;;;;;;;5.78;2.92;;;25.00;93.00;;;25.66;99.81;100238.47;5004899;28;20085;-75
2022/06/29 08:22:31;;;;;;;6.97;3.22;;;25.10;93.20;;;25.69;98.22;100232.84;4985841;28;20146;-75
2022/06/29 08:24:58;;;;;;;5.60;3.42;;;25.20;93.00;;;25.65;95.42;100234.09;4988159;28;20061;-75
2022/06/29 08:27:25;;;;;;;2.75;2.40;;;25.20;92.60;;;25.39;96.64;100231.00;4983191;28;20042;-75
2022/06/29 08:30:13;;;;;;;4.75;3.03;;;25.20;92.30;;;25.22;98.94;100240.59;4969646;28;20039;-76
2022/06/29 08:32:42;;;;;;;5.23;2.67;;;25.10;92.40;;;25.16;97.94;100231.22;4986012;28;20495;-76
2022/06/29 08:35:15;;;;;;;4.03;2.63;;;25.00;92.30;;;25.41;97.81;100231.72;4975629;28;20883;-76
2022/06/29 08:37:46;;;;;;;3.45;2.58;;;24.90;92.60;;;25.39;98.23;100223.81;4983164;28;20042;-76
2022/06/29 08:40:16;;;;;;;5.82;2.92;;;25.00;92.60;;;25.11;98.90;100220.84;4987854;28;20053;-76
2022/06/29 08:42:46;;;;;;;4.45;2.80;;;25.00;92.30;;;25.47;95.84;100215.88;4988767;28;20069;-76
2022/06/29 08:45:14;;;;;;;5.07;3.45;;;25.00;92.40;;;25.56;95.52;100221.47;4969608;28;20053;-77
2022/06/29 08:47:42;;;;;;;10.77;3.40;;;25.00;92.40;;;25.33;92.05;100221.63;4984025;28;20488;-75
2022/06/29 08:50:11;;;;;;;7.03;2.53;;;25.10;91.80;;;25.41;93.71;100227.19;4987751;28;20042;-77
2022/06/29 08:52:46;;;;;;;3.45;2.92;;;25.00;92.10;;;25.26;91.94;100225.88;4971190;28;20053;-77
2022/06/29 08:55:14;;;;;;;3.55;2.50;;;25.00;91.70;;;25.21;94.74;100223.59;4987779;28;20050;-77
2022/06/29 08:57:42;;;;;;;4.05;2.65;;;25.00;91.90;;;25.27;93.65;100230.28;4971589;28;20516;-78
2022/06/29 09:00:11;;;;;;;4.25;2.70;;;25.00;91.80;;;25.36;95.27;100229.44;4984895;28;20034;-78
2022/06/29 09:02:39;;;;;;;4.88;2.90;;;25.00;92.20;;;25.45;94.88;100230.47;4977500;28;20126;-78
2022/06/29 09:05:07;;;;;;;6.05;3.35;;;25.00;92.10;;;25.61;95.69;100232.66;4985624;28;20148;-78
2022/06/29 09:07:34;;;;;;;3.58;3.10;;;25.00;92.30;;;25.38;99.08;100222.09;4957565;28;20069;-78
2022/06/29 09:10:11;;;;;;;3.42;3.00;;;25.10;92.40;;;25.56;96.41;100225.00;4968963;28;20046;-77
2022/06/29 09:12:39;;;;;;;4.10;2.97;;;25.10;92.30;;;25.66;91.28;100230.41;4987774;28;20038;-77
2022/06/29 09:15:10;;;;;;;3.65;2.53;;;25.20;91.70;;;25.55;89.59;100234.06;4979487;28;20074;-77
2022/06/29 09:17:39;;;;;;;3.42;2.53;;;25.20;91.40;;;25.75;88.20;100218.81;4961082;28;20046;-77
2022/06/29 09:20:07;;;;;;;4.17;2.90;;;25.30;91.40;;;25.99;86.60;100214.88;4956170;28;20100;-77
2022/06/29 09:22:58;;;;;;;5.95;3.13;;;25.40;91.40;;;25.85;87.98;100209.88;4991996;28;20050;-75
2022/06/29 09:25:31;;;;;;;4.90;2.47;;;25.50;91.20;;;26.25;84.66;100218.88;4998298;28;20054;-78
2022/06/29 09:28:17;;;;;;;4.88;3.03;;;25.60;91.20;;;26.14;84.65;100223.38;4973255;28;20057;-74
2022/06/29 09:30:44;;;;;;;5.30;2.65;;;25.70;90.90;;;26.28;87.00;100224.78;4966580;28;20097;-76
2022/06/29 09:33:14;;;;;;;5.88;2.85;;;25.80;91.20;;;26.10;88.96;100218.38;4952851;28;20061;-75
2022/06/29 09:35:41;;;;;;;2.75;2.15;;;25.80;91.20;;;26.14;89.92;100220.66;4987073;28;20053;-75
2022/06/29 09:38:26;;;;;;;3.13;2.45;;;25.70;91.20;;;26.33;87.59;100217.16;4990311;28;20050;-76
2022/06/29 09:41:12;;;;;;;3.17;2.58;;;25.80;91.20;;;26.60;88.23;100217.38;4990065;28;20073;-77
2022/06/29 09:43:44;;;;;;;7.63;2.70;;;25.90;91.50;;;26.43;85.55;100216.28;4974624;28;20094;-77
2022/06/29 09:46:15;;;;;;;4.68;2.60;;;26.00;91.00;;;26.52;84.02;100218.09;4988524;28;20073;-76
2022/06/29 09:48:47;;;;;;;3.33;2.55;;;26.10;90.80;;;26.64;76.56;100218.78;4973935;28;20570;-74
2022/06/29 09:51:33;;;;;;;3.35;2.20;;;26.20;90.10;;;26.75;76.14;100218.63;4990994;28;20038;-79
2022/06/29 09:54:09;;;;;;;4.63;2.40;;;26.20;90.00;;;26.66;73.66;100224.06;4967989;28;20504;-78
2022/06/29 09:56:50;;;;;;;4.50;2.72;;;26.30;89.20;;;26.55;73.17;100217.81;4967948;28;20043;-76
2022/06/29 10:05:20;;;;;;;5.13;2.78;;;26.10;88.10;;;26.42;65.38;100218.13;4989024;28;20047;-77
2022/06/29 10:07:51;;;;;;;3.47;2.90;;;26.10;85.80;;;26.37;64.11;100223.09;4955813;28;20085;-76
2022/06/29 10:10:21;;;;;;;4.70;3.40;;;26.10;85.50;;;26.52;70.30;100218.09;4982207;28;20082;-75
2022/06/29 10:16:31;;;;;;;4.60;2.70;;;26.10;87.30;;;26.57;66.06;100212.28;4997542;28;20141;-77
2022/06/29 10:19:18;;;;;;;3.80;2.97;;;26.20;86.00;;;26.69;67.04;100205.69;4964313;28;20042;-77
2022/06/29 10:21:45;;;;;;;3.92;2.78;;;26.10;86.30;;;26.86;68.21;100212.22;4963121;28;20046;-79
2022/06/29 10:24:17;;;;;;;5.03;3.25;;;26.20;86.90;;;26.83;67.51;100209.78;4975406;28;20058;-78
2022/06/29 10:26:46;;;;;;;3.75;3.28;;;26.30;86.50;;;27.01;68.37;100209.91;4987526;28;20118;-78
2022/06/29 10:29:19;;;;;;;5.20;3.13;;;26.40;86.90;;;27.04;65.24;100201.50;4970631;28;20066;-78
2022/06/29 10:31:56;;;;;;;5.00;2.80;;;26.50;85.90;;;27.25;67.50;100199.59;4974728;28;20055;-79
2022/06/29 10:34:33;;;;;;;5.05;2.67;;;26.60;86.40;;;27.22;63.63;100198.03;4971943;28;20053;-78
2022/06/29 10:37:06;;;;;;;5.78;2.95;;;26.70;85.20;;;27.40;63.02;100199.91;4983553;28;20074;-78
2022/06/29 10:39:48;;;;;;;4.20;3.00;;;26.80;85.10;;;27.46;64.55;100202.00;4978904;28;20038;-78
2022/06/29 10:45:16;;;;;;;5.13;2.70;;;26.90;84.70;;;27.26;65.45;100198.59;4992586;28;20038;-78
2022/06/29 10:47:55;;;;;;;5.55;2.72;;;26.90;85.00;;;27.40;66.42;100199.91;4976236;28;20594;-78
2022/06/29 10:50:29;;;;;;;5.22;3.28;;;26.90;85.50;;;27.21;66.89;100200.84;4978727;28;20631;-79
2022/06/29 10:53:10;;;;;;;3.60;2.42;;;26.90;85.00;;;27.36;67.20;100199.34;4997527;28;20042;-77
2022/06/29 10:55:40;;;;;;;5.28;3.63;;;26.90;85.30;;;27.27;66.01;100194.88;4995087;28;20061;-79
2022/06/29 10:58:08;;;;;;;3.60;3.00;;;26.90;84.70;;;27.58;66.11;100191.88;4984481;28;20058;-78